Time;durP1;ratioP1;P1;durP2;ratioP2;P2;SDS_P1;SDS_P2;PMS_P1;PMS_P2;Temp;Humidity;BMP_temperature;BMP_pressure;BME280_temperature;BME280_humidity;BME280_pressure;Samples;Min_cycle;Max_cycle;Signal;HPM_P1;HPM_P2
2022/03/15 00:00:06;;;;;;;1.77;1.00;;;;;;;-1.54;48.94;100808.75;4956729;28;20451;-63
2022/03/15 00:02:33;;;;;;;1.98;0.90;;;;;;;-1.56;49.31;100810.84;4955257;29;20065;-63
2022/03/15 00:05:01;;;;;;;2.47;1.08;;;;;;;-1.52;48.94;100818.38;4956848;28;20059;-62
2022/03/15 00:07:28;;;;;;;2.67;0.98;;;;;;;-1.46;48.72;100817.47;4956091;28;20051;-62
2022/03/15 00:09:55;;;;;;;2.03;1.10;;;;;;;-1.38;49.30;100819.06;4956196;28;20078;-63
2022/03/15 00:12:22;;;;;;;0.88;0.80;;;;;;;-1.31;48.96;100817.94;4954353;28;20457;-63
2022/03/15 00:14:50;;;;;;;4.03;0.95;;;;;;;-1.25;49.10;100832.63;4954251;28;20483;-62
2022/03/15 00:17:18;;;;;;;1.10;0.80;;;;;;;-1.25;49.73;100818.97;4952704;28;20118;-64
2022/03/15 00:19:45;;;;;;;2.80;1.10;;;;;;;-1.36;49.91;100814.25;4954068;28;20055;-65
2022/03/15 00:22:12;;;;;;;1.50;0.90;;;;;;;-1.42;50.14;100831.50;4952720;28;20145;-65
2022/03/15 00:24:39;;;;;;;1.67;1.00;;;;;;;-1.46;49.60;100831.09;4952664;28;20102;-65
2022/03/15 00:27:06;;;;;;;2.72;1.00;;;;;;;-1.47;49.86;100834.06;4955971;28;20122;-63
2022/03/15 00:29:35;;;;;;;1.85;1.00;;;;;;;-1.56;49.61;100838.13;4952970;28;20462;-62
2022/03/15 00:32:02;;;;;;;5.50;2.17;;;;;;;-1.71;49.64;100838.47;4954701;28;20180;-64
2022/03/15 00:34:29;;;;;;;0.90;0.70;;;;;;;-1.83;48.84;100845.69;4950602;28;20557;-63
2022/03/15 00:36:56;;;;;;;0.93;0.68;;;;;;;-1.97;48.96;100844.94;4954111;28;20078;-63
2022/03/15 00:39:23;;;;;;;2.13;0.70;;;;;;;-1.93;48.42;100854.34;4953647;28;20488;-62
2022/03/15 00:41:50;;;;;;;0.63;0.60;;;;;;;-1.90;48.32;100862.09;4956310;28;20047;-62
2022/03/15 00:44:18;;;;;;;0.88;0.70;;;;;;;-1.83;47.75;100856.59;4955388;28;20149;-62
2022/03/15 00:46:45;;;;;;;1.27;0.70;;;;;;;-1.83;48.24;100861.19;4955697;28;20471;-63
2022/03/15 00:49:12;;;;;;;0.95;0.65;;;;;;;-1.87;48.09;100860.81;4953119;28;20059;-63
2022/03/15 00:51:39;;;;;;;0.95;0.80;;;;;;;-1.93;47.75;100854.34;4955652;28;20414;-63
2022/03/15 00:54:06;;;;;;;3.30;0.60;;;;;;;-1.93;48.16;100856.22;4955015;28;20055;-63
2022/03/15 00:56:33;;;;;;;0.82;0.70;;;;;;;-1.96;48.50;100868.41;4955826;28;20142;-63
2022/03/15 00:59:00;;;;;;;0.52;0.52;;;;;;;-2.06;47.99;100862.63;4954879;28;20059;-63
2022/03/15 01:01:27;;;;;;;0.73;0.70;;;;;;;-2.12;47.98;100866.22;4955256;29;20102;-64
2022/03/15 01:03:55;;;;;;;0.60;0.60;;;;;;;-2.18;48.12;100867.09;4955669;28;20086;-64
2022/03/15 01:06:22;;;;;;;1.45;0.73;;;;;;;-2.20;47.81;100871.91;4955428;28;20051;-63
2022/03/15 01:08:49;;;;;;;0.43;0.43;;;;;;;-2.23;48.41;100866.91;4955418;28;20051;-63
2022/03/15 01:11:16;;;;;;;0.65;0.65;;;;;;;-2.31;48.66;100874.50;4953346;28;20137;-62
2022/03/15 01:13:43;;;;;;;0.68;0.68;;;;;;;-2.31;48.17;100880.75;4945694;28;20057;-63
2022/03/15 01:16:10;;;;;;;2.88;0.80;;;;;;;-2.32;48.83;100879.09;4954876;28;20142;-65
2022/03/15 01:18:37;;;;;;;0.75;0.60;;;;;;;-2.35;49.14;100878.69;4955070;28;20051;-62
2022/03/15 01:21:05;;;;;;;0.90;0.73;;;;;;;-2.40;48.46;100886.69;4954569;28;20055;-63
2022/03/15 01:23:32;;;;;;;0.50;0.50;;;;;;;-2.39;48.28;100896.53;4951968;28;20055;-62
2022/03/15 01:26:00;;;;;;;0.80;0.80;;;;;;;-2.46;48.17;100888.38;4954653;28;20043;-63
2022/03/15 01:28:27;;;;;;;0.90;0.70;;;;;;;-2.49;48.80;100888.81;4954978;28;20055;-63
2022/03/15 01:30:54;;;;;;;1.08;0.70;;;;;;;-2.48;48.34;100885.06;4954919;28;20089;-63
2022/03/15 01:33:21;;;;;;;0.85;0.70;;;;;;;-2.47;48.37;100894.88;4951307;28;20157;-63
2022/03/15 01:35:48;;;;;;;0.77;0.70;;;;;;;-2.49;48.54;100891.53;4953789;28;20073;-62
2022/03/15 01:38:15;;;;;;;1.40;0.80;;;;;;;-2.49;48.54;100896.97;4954609;28;20518;-64
2022/03/15 01:40:42;;;;;;;0.60;0.60;;;;;;;-2.51;48.83;100890.94;4954862;28;20055;-63
2022/03/15 01:43:09;;;;;;;3.22;0.90;;;;;;;-2.52;48.26;100896.59;4952893;28;20058;-63
2022/03/15 01:45:39;;;;;;;4.03;0.90;;;;;;;-2.60;48.50;100892.19;4955197;28;20135;-64
2022/03/15 01:48:08;;;;;;;1.65;0.70;;;;;;;-2.62;48.77;100905.22;4954494;28;20055;-62
2022/03/15 01:50:36;;;;;;;0.70;0.70;;;;;;;-2.62;48.69;100910.66;4952718;28;20418;-63
2022/03/15 01:53:04;;;;;;;0.90;0.70;;;;;;;-2.66;48.82;100909.38;4954109;28;20061;-64
2022/03/15 01:55:31;;;;;;;2.42;0.65;;;;;;;-2.65;48.77;100902.91;4954607;29;20479;-65
2022/03/15 01:57:58;;;;;;;2.53;0.85;;;;;;;-2.67;49.21;100913.16;4954071;28;20475;-64
2022/03/15 02:00:25;;;;;;;5.80;0.60;;;;;;;-2.66;49.12;100914.84;4954504;28;20142;-64
2022/03/15 02:02:53;;;;;;;1.83;1.00;;;;;;;-2.69;48.72;100909.81;4953835;28;20083;-63
2022/03/15 02:05:20;;;;;;;1.02;0.77;;;;;;;-2.67;49.32;100921.34;4953048;29;20208;-63
2022/03/15 02:07:47;;;;;;;0.70;0.70;;;;;;;-2.70;49.52;100915.47;4953852;28;20219;-63
2022/03/15 02:10:14;;;;;;;1.73;0.90;;;;;;;-2.72;48.88;100926.59;4952761;29;20059;-63
2022/03/15 02:12:42;;;;;;;0.70;0.68;;;;;;;-2.72;49.20;100926.59;4953538;28;20090;-63
2022/03/15 02:15:09;;;;;;;1.17;0.82;;;;;;;-2.69;49.13;100919.91;4950606;29;20047;-63
2022/03/15 02:17:36;;;;;;;1.20;0.90;;;;;;;-2.74;48.98;100923.25;4954240;28;20051;-63
2022/03/15 02:20:08;;;;;;;0.68;0.68;;;;;;;-2.74;49.60;100936.03;4953818;28;20054;-63
2022/03/15 02:22:35;;;;;;;0.80;0.60;;;;;;;-2.81;49.27;100938.75;4953803;29;20130;-63
2022/03/15 02:25:02;;;;;;;1.15;0.82;;;;;;;-2.86;49.37;100940.44;4952639;29;20055;-64
2022/03/15 02:27:30;;;;;;;2.40;0.95;;;;;;;-2.92;49.22;100927.69;4952981;29;20498;-63
2022/03/15 02:29:57;;;;;;;1.05;0.75;;;;;;;-2.91;49.81;100937.50;4952320;29;20502;-64
2022/03/15 02:32:24;;;;;;;1.27;0.82;;;;;;;-2.86;49.30;100946.75;4954218;28;20410;-64
2022/03/15 02:34:51;;;;;;;1.23;0.80;;;;;;;-2.87;49.60;100950.50;4951949;28;20063;-64
2022/03/15 02:37:18;;;;;;;1.42;0.82;;;;;;;-2.90;49.54;100944.66;4951159;29;20130;-63
2022/03/15 02:39:45;;;;;;;1.02;0.80;;;;;;;-2.94;49.78;100944.22;4953245;28;20051;-63
2022/03/15 02:42:12;;;;;;;0.73;0.73;;;;;;;-2.93;50.01;100945.88;4953689;28;20138;-63
2022/03/15 02:44:39;;;;;;;2.53;1.20;;;;;;;-2.92;49.46;100949.47;4953091;28;20110;-63
2022/03/15 02:47:06;;;;;;;1.48;0.88;;;;;;;-2.93;49.87;100954.06;4957487;28;20062;-64
2022/03/15 02:49:33;;;;;;;1.30;0.90;;;;;;;-2.94;49.33;100954.25;4958012;28;20057;-62
2022/03/15 02:52:00;;;;;;;1.65;0.77;;;;;;;-2.93;49.53;100948.59;4960051;28;20057;-64
2022/03/15 02:54:26;;;;;;;1.00;0.80;;;;;;;-2.91;49.37;100953.84;4959817;28;20055;-64
2022/03/15 02:56:54;;;;;;;0.95;0.80;;;;;;;-2.93;49.88;100961.41;4959979;29;20561;-63
2022/03/15 02:59:21;;;;;;;1.92;1.00;;;;;;;-2.99;49.15;100963.06;4960003;28;20484;-64
2022/03/15 03:01:50;;;;;;;0.90;0.68;;;;;;;-3.03;50.06;100970.00;4960811;28;20053;-66
2022/03/15 03:04:21;;;;;;;1.67;1.00;;;;;;;-3.06;50.05;100973.13;4960167;28;20054;-63
2022/03/15 03:06:49;;;;;;;5.40;0.98;;;;;;;-3.04;50.04;100968.31;4959885;28;20579;-63
2022/03/15 03:09:16;;;;;;;1.20;0.93;;;;;;;-3.05;49.19;100974.78;4958685;28;20047;-64
2022/03/15 03:11:43;;;;;;;1.70;0.90;;;;;;;-3.11;49.32;100967.47;4959580;28;20399;-63
2022/03/15 03:14:12;;;;;;;1.17;0.82;;;;;;;-3.12;49.72;100978.56;4959977;28;20055;-64
2022/03/15 03:16:40;;;;;;;3.80;0.95;;;;;;;-3.14;50.15;100976.03;4959848;28;20051;-63
2022/03/15 03:19:08;;;;;;;1.25;0.88;;;;;;;-3.13;49.90;100976.91;4949055;28;20497;-63
2022/03/15 03:21:36;;;;;;;1.30;0.98;;;;;;;-3.09;50.18;100979.00;4958016;28;20051;-64
2022/03/15 03:24:08;;;;;;;1.30;0.90;;;;;;;-3.12;49.46;100989.44;4959800;28;20079;-63
2022/03/15 03:26:37;;;;;;;1.55;1.00;;;;;;;-3.10;49.24;100987.38;4955927;29;20419;-63
2022/03/15 03:29:13;;;;;;;1.40;0.82;;;;;;;-3.08;49.88;100988.00;4958073;28;20471;-63
2022/03/15 03:31:42;;;;;;;1.05;0.85;;;;;;;-3.07;49.90;100995.09;4956292;28;20143;-63
2022/03/15 03:34:11;;;;;;;1.23;0.85;;;;;;;-3.07;49.60;100998.69;4950224;29;20211;-63
2022/03/15 03:36:39;;;;;;;3.28;1.00;;;;;;;-3.09;49.29;100995.31;4956262;28;20062;-66
2022/03/15 03:39:22;;;;;;;11.43;1.45;;;;;;;-3.11;49.97;101002.84;4958617;28;20058;-64
2022/03/15 03:41:50;;;;;;;3.22;0.80;;;;;;;-3.12;49.71;101001.19;4958253;29;20106;-66
2022/03/15 03:44:17;;;;;;;0.93;0.77;;;;;;;-3.13;49.99;101010.41;4959559;28;20062;-65
2022/03/15 03:46:43;;;;;;;1.73;1.17;;;;;;;-3.09;49.49;101011.66;4959285;28;20589;-66
2022/03/15 03:49:11;;;;;;;1.15;0.85;;;;;;;-3.09;49.41;101016.25;4959456;28;20061;-65
2022/03/15 03:51:38;;;;;;;2.65;0.90;;;;;;;-3.11;50.18;101021.06;4957895;29;20055;-65
2022/03/15 03:54:05;;;;;;;2.35;1.00;;;;;;;-3.13;50.17;101015.84;4958123;28;20396;-66
2022/03/15 03:56:33;;;;;;;3.95;1.20;;;;;;;-3.14;49.91;101027.75;4959273;28;20055;-65
2022/03/15 03:59:00;;;;;;;1.75;1.05;;;;;;;-3.11;49.75;101035.50;4956537;28;20559;-66
2022/03/15 04:01:27;;;;;;;1.73;1.08;;;;;;;-3.09;49.82;101033.41;4956524;28;20082;-64
2022/03/15 04:03:54;;;;;;;1.10;0.85;;;;;;;-3.05;49.78;101029.22;4956411;28;20088;-65
2022/03/15 04:06:21;;;;;;;1.05;0.77;;;;;;;-2.96;49.45;101033.41;4955279;29;20129;-65
2022/03/15 04:08:48;;;;;;;5.45;1.20;;;;;;;-2.94;49.48;101025.88;4955356;28;20082;-66
2022/03/15 04:11:16;;;;;;;2.63;1.20;;;;;;;-2.89;49.61;101033.44;4955191;28;20399;-66
2022/03/15 04:13:44;;;;;;;1.45;1.05;;;;;;;-2.86;49.89;101033.00;4955872;28;20685;-65
2022/03/15 04:16:11;;;;;;;3.80;1.52;;;;;;;-2.81;49.69;101031.31;4956287;28;20516;-65
2022/03/15 04:18:38;;;;;;;9.43;1.20;;;;;;;-2.80;49.65;101043.91;4954181;28;20059;-65
2022/03/15 04:21:06;;;;;;;2.75;1.10;;;;;;;-2.80;49.48;101040.34;4954609;28;20111;-66
2022/03/15 04:23:33;;;;;;;1.23;0.80;;;;;;;-2.84;48.94;101034.47;4952214;28;20059;-67
2022/03/15 04:26:00;;;;;;;2.72;1.27;;;;;;;-2.88;49.42;101035.09;4954658;28;20090;-66
2022/03/15 04:28:28;;;;;;;1.40;1.00;;;;;;;-2.94;49.26;101047.66;4952433;28;20048;-66
2022/03/15 04:30:55;;;;;;;3.08;1.27;;;;;;;-2.89;49.03;101037.00;4954187;28;20051;-66
2022/03/15 04:33:22;;;;;;;2.03;1.02;;;;;;;-2.78;49.18;101044.50;4951920;28;20067;-66
2022/03/15 04:35:49;;;;;;;1.80;1.05;;;;;;;-2.68;49.39;101050.41;4954280;28;20050;-66
2022/03/15 04:38:16;;;;;;;3.00;1.20;;;;;;;-2.67;48.80;101046.63;4954381;28;20058;-65
2022/03/15 04:40:43;;;;;;;5.45;1.60;;;;;;;-2.66;48.75;101051.00;4955761;28;20533;-65
2022/03/15 04:43:10;;;;;;;2.08;1.13;;;;;;;-2.56;49.12;101056.88;4955210;28;20079;-65
2022/03/15 04:45:37;;;;;;;2.40;1.20;;;;;;;-2.41;48.67;101049.31;4955555;29;20090;-65
2022/03/15 04:48:04;;;;;;;2.67;1.10;;;;;;;-2.37;48.54;101058.72;4954366;28;20085;-66
2022/03/15 04:50:31;;;;;;;1.90;1.20;;;;;;;-2.38;48.74;101048.88;4955303;29;20109;-63
2022/03/15 04:52:58;;;;;;;2.47;1.20;;;;;;;-2.41;48.02;101052.03;4955507;28;20051;-64
2022/03/15 04:55:25;;;;;;;3.55;1.60;;;;;;;-2.32;48.30;101060.81;4955115;29;20137;-64
2022/03/15 04:57:52;;;;;;;1.17;0.95;;;;;;;-2.39;48.34;101063.56;4955740;28;20055;-63
2022/03/15 05:00:19;;;;;;;7.35;1.23;;;;;;;-2.43;48.75;101067.75;4955175;28;20053;-63
2022/03/15 05:02:46;;;;;;;2.13;1.30;;;;;;;-2.32;49.08;101064.41;4955445;28;20083;-63
2022/03/15 05:05:14;;;;;;;1.50;1.08;;;;;;;-2.15;48.56;101062.91;4955016;28;20501;-64
2022/03/15 05:07:41;;;;;;;2.65;0.98;;;;;;;-1.94;48.08;101068.09;4955365;28;20055;-64
2022/03/15 05:12:54;;;;;;;4.20;1.10;;;;;;;-1.99;47.82;101072.47;4945994;28;20063;-63
2022/03/15 05:15:22;;;;;;;1.40;0.90;;;;;;;-1.95;48.04;101066.38;4954561;28;20079;-63
2022/03/15 05:17:49;;;;;;;2.47;1.45;;;;;;;-1.86;47.79;101076.00;4954872;28;20105;-65
2022/03/15 05:20:17;;;;;;;2.70;1.40;;;;;;;-1.31;46.55;101071.78;4937580;29;20414;-64
2022/03/15 05:22:46;;;;;;;1.83;1.15;;;;;;;-0.53;45.07;101084.06;4953724;28;20062;-65
2022/03/15 05:25:13;;;;;;;6.32;1.27;;;;;;;-0.47;44.79;101066.78;4954672;28;20051;-65
2022/03/15 05:27:42;;;;;;;1.48;0.90;;;;;;;-0.43;44.94;101074.28;4954948;28;20507;-64
2022/03/15 05:30:09;;;;;;;3.47;1.45;;;;;;;0.06;44.52;101076.13;4954773;28;20055;-64
2022/03/15 05:32:36;;;;;;;4.07;1.00;;;;;;;0.57;43.55;101070.22;4954945;29;20137;-66
2022/03/15 05:35:04;;;;;;;1.35;0.75;;;;;;;1.44;42.08;101076.72;4953932;28;20075;-64
2022/03/15 05:37:31;;;;;;;1.75;1.15;;;;;;;2.31;40.40;101074.94;4953395;29;20073;-65
2022/03/15 05:40:00;;;;;;;1.75;1.00;;;;;;;3.67;38.71;101076.44;4954492;28;20050;-64
2022/03/15 05:42:28;;;;;;;1.50;0.93;;;;;;;5.16;36.27;101076.00;4954798;28;20519;-65
2022/03/15 05:44:55;;;;;;;1.17;0.82;;;;;;;4.07;37.94;101082.59;4954081;28;20051;-64
2022/03/15 05:47:22;;;;;;;3.78;0.80;;;;;;;2.81;40.12;101092.47;4951334;29;20174;-64
2022/03/15 05:49:50;;;;;;;7.82;1.00;;;;;;;2.44;41.23;101094.72;4952187;28;20554;-65
2022/03/15 05:52:17;;;;;;;2.45;1.10;;;;;;;3.63;39.56;101097.31;4954430;28;20146;-65
2022/03/15 05:54:45;;;;;;;3.28;1.20;;;;;;;5.41;37.19;101090.88;4954344;28;20053;-65
2022/03/15 05:57:11;;;;;;;2.05;1.10;;;;;;;5.16;35.67;101096.16;4952549;29;20086;-65
2022/03/15 05:59:41;;;;;;;3.40;1.17;;;;;;;3.73;38.65;101094.72;4954298;28;20051;-65
2022/03/15 06:02:08;;;;;;;3.97;0.90;;;;;;;2.90;40.12;101097.31;4953829;28;20111;-65
2022/03/15 06:04:36;;;;;;;2.83;1.15;;;;;;;3.16;40.02;101106.91;4953190;28;20502;-64
2022/03/15 06:07:03;;;;;;;1.20;0.77;;;;;;;5.76;35.58;101097.81;4952581;29;20506;-65
2022/03/15 06:09:34;;;;;;;2.95;1.35;;;;;;;7.58;33.67;101096.50;4954386;28;20491;-64
2022/03/15 06:12:01;;;;;;;4.75;1.02;;;;;;;8.95;31.62;101098.84;4951979;28;20054;-65
2022/03/15 06:14:27;;;;;;;2.78;1.20;;;;;;;7.78;32.37;101096.53;4952406;28;20533;-65
2022/03/15 06:16:54;;;;;;;2.03;0.95;;;;;;;10.19;30.28;101089.94;4950317;28;20118;-65
2022/03/15 06:19:21;;;;;;;1.67;1.02;;;;;;;11.84;27.89;101104.53;4952381;28;20105;-67
2022/03/15 06:21:49;;;;;;;1.98;1.02;;;;;;;13.40;26.61;101084.78;4949898;28;20106;-67
2022/03/15 06:24:17;;;;;;;2.47;1.10;;;;;;;14.76;24.12;101090.56;4953886;28;20138;-65
2022/03/15 06:26:46;;;;;;;2.38;1.27;;;;;;;16.02;23.65;101094.81;4951701;28;20550;-65
2022/03/15 06:29:13;;;;;;;2.67;1.30;;;;;;;17.62;21.81;101095.75;4954069;28;20061;-66
2022/03/15 06:31:40;;;;;;;3.50;1.25;;;;;;;18.79;20.59;101094.13;4953754;28;20051;-65
2022/03/15 06:34:07;;;;;;;3.08;1.30;;;;;;;19.23;19.77;101090.41;4953542;28;20086;-65
2022/03/15 06:36:34;;;;;;;5.40;1.20;;;;;;;18.80;20.17;101095.78;4951692;28;20142;-65
2022/03/15 06:39:02;;;;;;;1.65;1.00;;;;;;;18.88;19.84;101094.03;4951300;28;20051;-64
2022/03/15 06:41:30;;;;;;;3.38;1.23;;;;;;;19.44;19.43;101096.78;4951551;28;20533;-65
2022/03/15 06:43:57;;;;;;;2.15;1.20;;;;;;;19.39;19.26;101099.84;4951981;28;20110;-64
2022/03/15 06:46:24;;;;;;;31.92;10.30;;;;;;;20.36;18.48;101099.59;4953876;28;20089;-65
2022/03/15 06:48:51;;;;;;;3.58;1.65;;;;;;;21.01;17.54;101111.16;4951782;28;20047;-65
2022/03/15 06:51:18;;;;;;;1.80;0.85;;;;;;;20.03;18.11;101102.66;4953881;29;20134;-65
2022/03/15 06:53:45;;;;;;;3.35;1.17;;;;;;;16.10;20.17;101105.22;4952943;28;20142;-65
2022/03/15 06:56:12;;;;;;;2.08;1.00;;;;;;;14.52;21.12;101104.97;4953446;28;20058;-66
2022/03/15 06:58:39;;;;;;;6.45;1.10;;;;;;;13.02;22.48;101106.56;4953258;28;20047;-65
2022/03/15 07:01:06;;;;;;;7.78;2.97;;;;;;;12.38;23.25;101112.28;4954505;28;20051;-63
2022/03/15 07:03:34;;;;;;;39.53;9.63;;;;;;;13.23;22.19;101109.78;4949884;28;20396;-65
2022/03/15 07:06:01;;;;;;;4.82;1.95;;;;;;;13.04;22.15;101104.31;4951261;28;20451;-64
2022/03/15 07:08:28;;;;;;;4.05;1.30;;;;;;;12.70;21.96;101110.25;4949899;29;20395;-64
2022/03/15 07:10:55;;;;;;;2.40;1.23;;;;;;;12.60;22.09;101099.31;4949463;29;20051;-65
2022/03/15 07:13:22;;;;;;;4.60;1.52;;;;;;;12.22;22.52;101099.72;4950235;28;20043;-65
2022/03/15 07:15:49;;;;;;;7.90;1.40;;;;;;;12.29;22.16;101103.78;4950641;29;20051;-65
2022/03/15 07:18:18;;;;;;;2.88;1.23;;;;;;;12.66;22.13;101098.06;4950511;28;20044;-65
2022/03/15 07:20:45;;;;;;;3.05;1.10;;;;;;;13.88;21.39;101097.06;4949524;29;20051;-65
2022/03/15 07:23:13;;;;;;;1.90;1.10;;;;;;;12.98;21.91;101096.31;4950466;28;20063;-65
2022/03/15 07:25:39;;;;;;;3.72;1.00;;;;;;;12.80;22.15;101101.66;4949061;28;20130;-64
2022/03/15 07:28:06;;;;;;;1.90;1.00;;;;;;;11.36;23.49;101100.22;4948597;28;20071;-64
2022/03/15 07:30:33;;;;;;;4.22;1.17;;;;;;;11.61;23.25;101094.31;4947994;28;20043;-64
2022/03/15 07:33:01;;;;;;;2.40;1.20;;;;;;;11.90;22.70;101089.38;4951655;28;22166;-64
2022/03/15 07:35:28;;;;;;;10.13;1.27;;;;;;;13.55;21.63;101101.22;4952944;28;20086;-64
2022/03/15 07:37:56;;;;;;;8.60;1.52;;;;;;;14.50;19.92;101093.25;4955188;28;20082;-63
2022/03/15 07:40:25;;;;;;;4.15;1.00;;;;;;;13.46;21.38;101095.56;4955867;28;20146;-63
2022/03/15 07:42:53;;;;;;;3.72;1.10;;;;;;;12.47;22.32;101102.88;4952928;28;20130;-64
2022/03/15 07:45:20;;;;;;;1.98;1.02;;;;;;;11.79;22.71;101099.06;4951851;29;20057;-64
2022/03/15 07:47:48;;;;;;;2.65;1.08;;;;;;;11.59;23.05;101104.06;4955070;28;20055;-64
2022/03/15 07:50:15;;;;;;;6.30;1.60;;;;;;;10.87;23.70;101108.94;4953692;28;20059;-65
2022/03/15 07:52:42;;;;;;;14.65;1.30;;;;;;;12.07;22.89;101105.56;4956166;29;20542;-64
2022/03/15 07:55:09;;;;;;;2.95;1.02;;;;;;;12.53;22.11;101112.00;4953435;28;20083;-65
2022/03/15 07:57:38;;;;;;;4.60;1.23;;;;;;;12.37;22.20;101108.66;4952915;28;20094;-63
2022/03/15 08:00:05;;;;;;;4.57;0.90;;;;;;;12.60;21.89;101118.84;4954613;28;20077;-64
2022/03/15 08:02:32;;;;;;;1.50;0.90;;;;;;;11.80;21.80;101109.09;4952646;28;20126;-64
2022/03/15 08:05:06;;;;;;;2.58;1.20;;;;;;;11.95;22.23;101111.63;4954317;28;20059;-63
2022/03/15 08:07:36;;;;;;;2.75;1.10;;;;;;;14.42;19.64;101108.84;4953401;28;20055;-65
2022/03/15 08:10:08;;;;;;;2.85;1.25;;;;;;;15.50;19.20;101111.94;4953626;28;20066;-64
2022/03/15 08:12:35;;;;;;;2.75;1.10;;;;;;;15.47;18.88;101110.63;4951381;28;20094;-65
2022/03/15 08:15:06;;;;;;;2.33;0.90;;;;;;;14.48;19.53;101112.38;4954082;28;20079;-64
2022/03/15 08:17:37;;;;;;;8.63;1.23;;;;;;;13.68;20.45;101115.16;4952539;28;20047;-65
2022/03/15 08:20:06;;;;;;;10.50;2.38;;;;;;;12.94;20.96;101113.69;4954280;28;20079;-64
2022/03/15 08:22:33;;;;;;;3.20;1.30;;;;;;;13.22;21.13;101117.34;4954108;28;20053;-65
2022/03/15 08:25:02;;;;;;;2.10;1.13;;;;;;;15.51;19.09;101111.63;4955959;28;20061;-65
2022/03/15 08:27:31;;;;;;;2.80;1.17;;;;;;;15.93;17.58;101102.41;4955404;28;20043;-63
2022/03/15 08:29:58;;;;;;;4.25;0.93;;;;;;;16.17;18.15;101099.09;4956149;28;20088;-64
2022/03/15 08:32:26;;;;;;;3.53;1.40;;;;;;;17.88;17.13;101107.63;4955914;28;20055;-63
2022/03/15 08:34:53;;;;;;;2.70;1.55;;;;;;;19.45;16.07;101092.78;4955592;28;20166;-64
2022/03/15 08:37:20;;;;;;;2.92;1.58;;;;;;;19.84;15.66;101097.63;4954204;28;20546;-65
2022/03/15 08:39:48;;;;;;;4.13;1.23;;;;;;;22.10;14.54;101096.81;4955985;28;20051;-64
2022/03/15 08:42:14;;;;;;;9.05;1.50;;;;;;;24.02;13.38;101087.28;4955397;28;20062;-64
2022/03/15 08:44:42;;;;;;;8.13;1.58;;;;;;;24.73;12.42;101084.13;4954199;28;20205;-65
2022/03/15 08:47:09;;;;;;;2.55;1.35;;;;;;;26.06;12.03;101089.28;4955506;28;20129;-63
2022/03/15 08:49:36;;;;;;;2.55;1.35;;;;;;;27.74;10.84;101083.09;4950067;28;20482;-64
2022/03/15 08:52:03;;;;;;;2.47;1.60;;;;;;;28.75;10.14;101087.63;4955534;28;20075;-64
2022/03/15 08:54:31;;;;;;;4.70;1.42;;;;;;;29.54;9.88;101086.66;4955797;28;20058;-65
2022/03/15 08:56:58;;;;;;;9.30;1.40;;;;;;;30.08;9.51;101086.47;4955601;28;20487;-64
2022/03/15 08:59:25;;;;;;;3.53;1.38;;;;;;;29.94;9.38;101080.91;4953685;28;20536;-64
2022/03/15 09:01:53;;;;;;;8.13;2.08;;;;;;;30.07;9.12;101093.47;4953891;29;20528;-63
2022/03/15 09:04:20;;;;;;;2.88;1.55;;;;;;;30.73;8.69;101085.25;4951609;28;20387;-64
2022/03/15 09:06:47;;;;;;;2.47;1.38;;;;;;;30.66;8.11;101084.53;4946424;29;20055;-65
2022/03/15 09:09:21;;;;;;;6.00;2.70;;;;;;;30.48;8.46;101081.09;4951563;28;20047;-65
2022/03/15 09:11:48;;;;;;;4.97;1.42;;;;;;;31.25;7.94;101080.75;4953448;29;20109;-65
2022/03/15 09:14:15;;;;;;;2.55;1.05;;;;;;;32.07;7.57;101080.94;4951343;28;20582;-64
2022/03/15 09:16:42;;;;;;;3.58;1.70;;;;;;;32.33;7.51;101077.13;4953623;28;20134;-64
2022/03/15 09:19:11;;;;;;;4.85;1.67;;;;;;;32.06;7.38;101072.75;4951029;28;20047;-64
2022/03/15 09:21:38;;;;;;;8.38;1.67;;;;;;;32.07;7.57;101080.94;4953618;28;20057;-64
2022/03/15 09:24:06;;;;;;;5.78;1.65;;;;;;;32.56;7.44;101076.25;4951404;28;20058;-64
2022/03/15 09:26:33;;;;;;;4.13;1.60;;;;;;;32.60;7.67;101074.91;4954719;28;20481;-65
2022/03/15 09:29:00;;;;;;;2.85;1.42;;;;;;;32.71;7.07;101080.44;4954560;28;20164;-64
2022/03/15 09:31:27;;;;;;;3.38;1.70;;;;;;;33.25;6.73;101070.06;4955013;28;20077;-64
2022/03/15 09:33:55;;;;;;;3.58;1.58;;;;;;;33.52;6.76;101067.75;4954113;28;20129;-64
2022/03/15 09:36:23;;;;;;;4.63;1.60;;;;;;;33.53;6.42;101068.56;4952941;29;20470;-65
2022/03/15 09:38:50;;;;;;;4.30;1.83;;;;;;;33.68;6.83;101073.50;4954492;28;20126;-63
2022/03/15 09:41:18;;;;;;;4.90;1.73;;;;;;;33.73;6.28;101077.91;4955670;28;20287;-65
2022/03/15 09:43:46;;;;;;;2.75;1.45;;;;;;;32.95;7.00;101079.06;4954663;28;20047;-65
2022/03/15 09:46:15;;;;;;;38.72;16.10;;;;;;;31.53;6.97;101082.38;4954195;29;20114;-64
2022/03/15 09:49:02;;;;;;;4.85;2.00;;;;;;;26.54;9.41;101080.09;4951685;28;20053;-64
2022/03/15 09:51:32;;;;;;;6.05;1.58;;;;;;;22.30;11.26;101087.09;4952473;28;20110;-65
2022/03/15 09:54:01;;;;;;;7.43;1.80;;;;;;;19.80;12.47;101081.75;4953065;28;20090;-62
2022/03/15 09:56:29;;;;;;;5.55;1.60;;;;;;;17.37;13.97;101082.63;4950716;28;20051;-63
2022/03/15 09:58:56;;;;;;;5.32;2.03;;;;;;;15.12;15.93;101082.78;4951026;28;20047;-65
2022/03/15 10:01:23;;;;;;;4.72;1.48;;;;;;;12.90;17.55;101093.09;4949292;28;20074;-63
2022/03/15 10:03:50;;;;;;;4.30;1.70;;;;;;;11.67;18.65;101090.34;4948339;28;20138;-65
2022/03/15 10:06:19;;;;;;;3.60;2.00;;;;;;;10.28;20.12;101086.25;4941638;29;20130;-65
2022/03/15 10:08:47;;;;;;;4.38;2.05;;;;;;;9.31;21.12;101089.22;4943649;28;20074;-63
2022/03/15 10:11:14;;;;;;;2.67;1.40;;;;;;;9.01;20.86;101089.38;4948824;28;20055;-66
2022/03/15 10:13:41;;;;;;;6.95;1.88;;;;;;;8.63;21.89;101093.69;4951167;28;20050;-65
2022/03/15 10:16:12;;;;;;;4.68;1.40;;;;;;;8.15;21.97;101094.31;4951085;28;20055;-65
2022/03/15 10:18:55;;;;;;;4.97;1.83;;;;;;;8.04;22.59;101097.34;4950937;29;20066;-65
2022/03/15 10:21:25;;;;;;;7.60;1.75;;;;;;;7.93;22.43;101099.31;4950374;29;20475;-64
2022/03/15 10:23:55;;;;;;;20.40;7.20;;;;;;;7.70;23.07;101091.56;4949896;28;20055;-64
2022/03/15 10:26:24;;;;;;;8.70;1.73;;;;;;;7.27;23.25;101094.81;4951167;29;20043;-64
2022/03/15 10:28:54;;;;;;;4.87;1.60;;;;;;;6.69;24.60;101084.13;4951865;28;20047;-65
2022/03/15 10:31:23;;;;;;;4.10;1.40;;;;;;;6.48;24.49;101090.66;4950804;28;20051;-66
2022/03/15 10:33:53;;;;;;;3.50;1.33;;;;;;;6.35;25.09;101097.47;4949763;28;20116;-64
2022/03/15 10:36:21;;;;;;;3.30;1.38;;;;;;;6.16;25.56;101089.88;4951072;29;20074;-64
2022/03/15 10:38:51;;;;;;;5.05;2.00;;;;;;;5.94;25.06;101086.38;4951199;28;21362;-64
2022/03/15 10:41:19;;;;;;;4.95;1.20;;;;;;;5.86;25.96;101090.47;4947708;28;20410;-66
2022/03/15 10:44:01;;;;;;;2.85;1.05;;;;;;;5.59;26.44;101089.66;4949507;28;20118;-63
2022/03/15 10:46:28;;;;;;;14.20;1.70;;;;;;;5.36;25.83;101087.25;4947706;29;20051;-65
2022/03/15 10:49:03;;;;;;;5.50;1.88;;;;;;;5.30;26.78;101086.34;4948352;29;20622;-65
2022/03/15 10:51:31;;;;;;;7.18;1.85;;;;;;;5.09;27.06;101080.88;4949483;29;20102;-64
2022/03/15 10:54:04;;;;;;;4.53;1.10;;;;;;;4.94;27.57;101087.06;4949647;28;20134;-66
2022/03/15 10:56:31;;;;;;;3.72;1.20;;;;;;;4.88;27.64;101074.31;4947711;29;20047;-65
2022/03/15 10:59:05;;;;;;;3.70;1.10;;;;;;;4.99;26.75;101076.09;4946887;28;20126;-65
2022/03/15 11:01:38;;;;;;;4.63;1.20;;;;;;;4.95;27.80;101076.88;4952581;29;20089;-64
2022/03/15 11:04:10;;;;;;;6.72;1.35;;;;;;;4.87;27.79;101069.06;4949513;28;20467;-64
2022/03/15 11:06:41;;;;;;;7.50;2.00;;;;;;;4.69;29.00;101074.91;4948266;29;20094;-63
2022/03/15 11:09:28;;;;;;;2.92;1.48;;;;;;;4.54;29.28;101082.97;4953113;29;20071;-63
2022/03/15 11:12:07;;;;;;;5.13;1.38;;;;;;;4.57;28.97;101083.31;4952975;29;20059;-62
2022/03/15 11:14:41;;;;;;;2.53;1.10;;;;;;;4.63;29.14;101093.31;4953113;28;20110;-63
2022/03/15 11:17:21;;;;;;;7.43;1.25;;;;;;;4.74;28.73;101083.25;4954592;28;20043;-64
2022/03/15 11:19:50;;;;;;;6.10;1.80;;;;;;;4.71;28.46;101090.09;4953773;28;20110;-65
2022/03/15 11:22:21;;;;;;;2.20;1.00;;;;;;;4.61;28.40;101084.47;4955381;28;20137;-63
2022/03/15 11:24:52;;;;;;;4.25;1.40;;;;;;;4.63;28.51;101076.78;4953382;28;20118;-63
2022/03/15 11:27:22;;;;;;;7.72;1.60;;;;;;;4.53;29.50;101076.63;4955095;28;20125;-64
2022/03/15 11:29:52;;;;;;;4.03;1.80;;;;;;;4.36;29.67;101073.13;4954957;28;20057;-63
2022/03/15 11:32:19;;;;;;;2.75;1.45;;;;;;;4.38;29.44;101076.44;4954352;29;20054;-64